createdAt,value
2023-03-26T00:00:09.505Z,100442.77
2023-03-26T00:03:01.885Z,100452.92
2023-03-26T00:05:32.309Z,100452.55
2023-03-26T00:08:01.664Z,100457.39
2023-03-26T00:10:31.038Z,100464.23
2023-03-26T00:13:00.371Z,100469.33
2023-03-26T00:15:30.160Z,100467.59
2023-03-26T00:18:02.638Z,100470.06
2023-03-26T00:20:34.778Z,100465.46
2023-03-26T00:23:05.103Z,100465.83
2023-03-26T00:25:35.054Z,100465.83
2023-03-26T00:28:06.375Z,100464.59
2023-03-26T00:30:36.277Z,100468.14
2023-03-26T00:33:07.839Z,100471.13
2023-03-26T00:35:38.985Z,100475.67
2023-03-26T00:38:09.016Z,100480.58
2023-03-26T00:40:38.471Z,100488.55
2023-03-26T00:43:18.876Z,100488.04
2023-03-26T00:45:55.558Z,100489.99
2023-03-26T00:48:41.922Z,100483.44
2023-03-26T00:51:16.826Z,100486.95
2023-03-26T00:53:48.572Z,100486.80
2023-03-26T00:56:19.383Z,100487.50
2023-03-26T00:58:52.135Z,100485.46
2023-03-26T01:01:28.734Z,100485.81
2023-03-26T01:04:28.613Z,100482.60
2023-03-26T01:07:04.230Z,100479.70
2023-03-26T01:09:42.920Z,100472.91
2023-03-26T01:12:17.214Z,100469.68
2023-03-26T01:14:51.044Z,100476.88
2023-03-26T01:17:22.403Z,100475.67
2023-03-26T01:20:12.414Z,100475.42
2023-03-26T01:22:53.429Z,100477.81
2023-03-26T01:25:28.013Z,100479.17
2023-03-26T01:27:57.824Z,100479.27
2023-03-26T01:30:52.055Z,100477.80
2023-03-26T01:33:30.286Z,100479.83
2023-03-26T01:36:21.319Z,100477.39
2023-03-26T01:39:20.251Z,100478.20
2023-03-26T01:41:57.502Z,100479.05
2023-03-26T01:44:34.820Z,100487.89
2023-03-26T01:47:06.576Z,100491.46
2023-03-26T01:49:36.552Z,100492.59
2023-03-26T01:52:16.201Z,100489.29
2023-03-26T01:54:46.757Z,100486.75
2023-03-26T01:57:29.805Z,100487.66
2023-03-26T02:00:30.280Z,100493.91
2023-03-26T02:03:20.543Z,100498.02
2023-03-26T02:06:26.422Z,100499.71
2023-03-26T02:09:06.221Z,100502.48
2023-03-26T02:11:39.201Z,100507.73
2023-03-26T02:14:10.656Z,100504.77
2023-03-26T02:16:40.121Z,100502.21
2023-03-26T02:19:16.169Z,100501.02
2023-03-26T02:21:47.005Z,100509.14
2023-03-26T02:24:16.917Z,100514.05
2023-03-26T02:26:46.794Z,100512.13
2023-03-26T02:29:21.466Z,100511.05
2023-03-26T02:31:51.313Z,100515.31
2023-03-26T02:34:21.210Z,100517.48
2023-03-26T02:36:55.035Z,100523.73
2023-03-26T02:39:26.310Z,100521.45
2023-03-26T02:42:01.675Z,100519.48
2023-03-26T02:44:31.317Z,100523.45
2023-03-26T02:47:00.768Z,100518.27
2023-03-26T02:49:48.238Z,100501.44
2023-03-26T02:52:31.928Z,100510.17
2023-03-26T02:55:01.748Z,100521.16
2023-03-26T02:57:31.499Z,100525.19
2023-03-26T03:00:22.912Z,100521.13
2023-03-26T03:03:28.257Z,100524.33
2023-03-26T03:06:04.034Z,100526.06
2023-03-26T03:08:46.224Z,100531.13
2023-03-26T03:11:44.450Z,100534.46
2023-03-26T03:14:14.269Z,100533.61
2023-03-26T03:16:44.086Z,100533.76
2023-03-26T03:19:14.508Z,100531.60
2023-03-26T03:21:44.192Z,100535.08
2023-03-26T03:24:14.096Z,100535.27
2023-03-26T03:26:47.918Z,100531.86
2023-03-26T03:29:36.420Z,100529.73
2023-03-26T03:32:46.914Z,100533.55
2023-03-26T03:35:19.824Z,100534.77
2023-03-26T03:37:52.428Z,100535.58
2023-03-26T03:40:22.045Z,100537.55
2023-03-26T03:42:51.803Z,100541.52
2023-03-26T03:45:29.014Z,100538.61
2023-03-26T03:48:28.751Z,100531.58
2023-03-26T03:50:58.305Z,100530.25
2023-03-26T03:53:31.631Z,100527.30
2023-03-26T03:56:02.335Z,100526.54
2023-03-26T03:58:50.820Z,100530.23
2023-03-26T04:01:26.431Z,100542.16
2023-03-26T04:04:05.744Z,100541.98
2023-03-26T04:06:46.564Z,100540.05
2023-03-26T04:09:16.930Z,100545.19
2023-03-26T04:11:46.959Z,100548.48
2023-03-26T04:14:28.091Z,100551.52
2023-03-26T04:17:07.364Z,100548.32
2023-03-26T04:19:38.611Z,100552.94
2023-03-26T04:22:12.151Z,100557.17
2023-03-26T04:24:54.708Z,100559.86
2023-03-26T04:28:28.913Z,100565.71
2023-03-26T04:32:31.055Z,100564.90
2023-03-26T04:35:04.300Z,100563.27
2023-03-26T04:37:40.205Z,100558.79
2023-03-26T04:40:52.284Z,100569.40
2023-03-26T04:43:47.557Z,100568.77
2023-03-26T04:47:09.640Z,100569.79
2023-03-26T04:49:49.065Z,100569.39
2023-03-26T04:52:19.041Z,100567.78
2023-03-26T04:55:49.278Z,100572.41
2023-03-26T04:59:12.587Z,100576.30
2023-03-26T05:01:45.983Z,100578.77
2023-03-26T05:04:16.539Z,100578.23
2023-03-26T05:06:46.376Z,100582.25
2023-03-26T05:09:27.725Z,100580.61
2023-03-26T05:12:55.859Z,100586.70
2023-03-26T05:15:30.868Z,100587.69
2023-03-26T05:18:00.285Z,100587.08
2023-03-26T05:20:48.055Z,100594.59
2023-03-26T05:23:17.613Z,100597.05
2023-03-26T05:25:57.431Z,100601.44
2023-03-26T05:28:28.494Z,100607.68
2023-03-26T05:31:04.158Z,100605.24
2023-03-26T05:33:37.343Z,100607.40
2023-03-26T05:36:17.383Z,100617.11
2023-03-26T05:38:50.551Z,100616.39
2023-03-26T05:41:38.946Z,100612.48
2023-03-26T05:44:08.839Z,100618.60
2023-03-26T05:46:38.252Z,100619.54
2023-03-26T05:49:07.902Z,100618.96
2023-03-26T05:51:38.040Z,100622.63
2023-03-26T05:55:00.051Z,100627.61
2023-03-26T05:57:47.865Z,100626.90
2023-03-26T06:00:40.370Z,100627.09
2023-03-26T06:03:12.931Z,100627.38
2023-03-26T06:06:01.625Z,100632.67
2023-03-26T06:08:41.367Z,100636.43
2023-03-26T06:11:12.784Z,100644.66
2023-03-26T06:13:43.525Z,100649.30
2023-03-26T06:16:26.247Z,100653.09
2023-03-26T06:19:11.915Z,100662.52
2023-03-26T06:21:53.339Z,100665.07
2023-03-26T06:24:30.391Z,100672.12
2023-03-26T06:27:58.472Z,100680.61
2023-03-26T06:30:48.060Z,100684.95
2023-03-26T06:33:30.149Z,100692.53
2023-03-26T06:36:01.354Z,100696.77
2023-03-26T06:38:31.576Z,100699.24
2023-03-26T06:41:07.272Z,100704.15
2023-03-26T06:43:57.031Z,100706.13
2023-03-26T06:47:21.529Z,100702.73
2023-03-26T06:50:12.132Z,100709.55
2023-03-26T06:53:14.085Z,100716.39
2023-03-26T06:56:39.812Z,100723.58
2023-03-26T06:59:26.471Z,100724.73
2023-03-26T07:02:14.353Z,100726.64
2023-03-26T07:05:02.317Z,100726.46
2023-03-26T07:07:50.642Z,100731.06
2023-03-26T07:10:38.402Z,100733.37
2023-03-26T07:13:59.943Z,100736.95
2023-03-26T07:17:28.503Z,100739.96
2023-03-26T07:20:09.396Z,100738.27
2023-03-26T07:22:39.446Z,100740.49
2023-03-26T07:25:10.113Z,100744.55
2023-03-26T07:29:04.444Z,100754.69
2023-03-26T07:32:03.564Z,100747.27
2023-03-26T07:35:21.144Z,100742.88
2023-03-26T07:38:28.721Z,100741.66
2023-03-26T07:41:55.382Z,100743.51
2023-03-26T07:45:01.059Z,100745.43
2023-03-26T07:47:43.166Z,100753.62
2023-03-26T07:50:26.056Z,100756.48
2023-03-26T07:53:05.917Z,100760.58
2023-03-26T07:56:27.950Z,100764.16
2023-03-26T08:00:09.153Z,100765.05
2023-03-26T08:03:21.359Z,100762.64
2023-03-26T08:06:19.585Z,100761.65
2023-03-26T08:09:59.016Z,100766.92
2023-03-26T08:22:27.462Z,100771.38
2023-03-26T08:25:21.834Z,100773.80
2023-03-26T08:27:57.159Z,100767.06
2023-03-26T08:30:27.856Z,100771.05
2023-03-26T08:33:20.712Z,100772.89
2023-03-26T08:35:50.240Z,100778.55
2023-03-26T08:38:21.637Z,100788.55
2023-03-26T08:41:10.520Z,100793.86
2023-03-26T08:43:58.587Z,100799.77
2023-03-26T08:46:55.889Z,100804.80
2023-03-26T08:49:46.726Z,100811.53
2023-03-26T08:53:02.399Z,100813.10
2023-03-26T08:55:49.630Z,100818.33
2023-03-26T08:58:56.840Z,100827.84
2023-03-26T09:02:08.957Z,100834.81
2023-03-26T09:04:54.472Z,100836.85
2023-03-26T09:08:06.517Z,100841.04
2023-03-26T09:11:10.751Z,100846.24
2023-03-26T09:14:25.657Z,100846.27
2023-03-26T09:17:16.292Z,100848.30
2023-03-26T09:20:15.195Z,100839.43
2023-03-26T09:23:16.171Z,100822.94
2023-03-26T09:26:26.315Z,100814.27
2023-03-26T09:29:07.985Z,100824.16
2023-03-26T09:32:25.764Z,100823.37
2023-03-26T09:35:26.039Z,100818.60
2023-03-26T09:38:28.672Z,100818.27
2023-03-26T09:41:14.863Z,100814.73
2023-03-26T09:44:14.769Z,100807.13
2023-03-26T09:47:28.121Z,100805.73
2023-03-26T09:50:24.075Z,100801.53
2023-03-26T09:53:21.140Z,100813.46
2023-03-26T09:56:47.066Z,100820.43
2023-03-26T09:59:42.744Z,100815.48
2023-03-26T10:03:04.373Z,100820.27
2023-03-26T10:06:00.111Z,100829.09
2023-03-26T10:09:08.768Z,100827.81
2023-03-26T10:12:05.030Z,100826.73
2023-03-26T10:15:05.313Z,100829.30
2023-03-26T10:18:27.445Z,100826.45
2023-03-26T10:21:15.939Z,100833.01
2023-03-26T10:24:14.676Z,100827.54
2023-03-26T10:27:22.096Z,100828.52
2023-03-26T10:30:33.243Z,100823.02
2023-03-26T10:33:16.217Z,100825.37
2023-03-26T10:36:31.990Z,100825.95
2023-03-26T10:39:37.990Z,100820.14
2023-03-26T10:42:23.652Z,100817.15
2023-03-26T10:45:29.245Z,100813.61
2023-03-26T10:48:20.549Z,100818.11
2023-03-26T10:50:57.467Z,100815.41
2023-03-26T10:53:49.691Z,100813.98
2023-03-26T10:56:37.521Z,100805.63
2023-03-26T10:59:12.833Z,100805.80
2023-03-26T11:02:15.752Z,100802.20
2023-03-26T11:05:06.481Z,100800.05
2023-03-26T11:07:51.922Z,100804.71
2023-03-26T11:10:41.657Z,100802.84
2023-03-26T11:13:49.260Z,100803.27
2023-03-26T11:16:53.635Z,100796.77
2023-03-26T11:19:37.152Z,100793.23
2023-03-26T11:22:31.856Z,100793.11
2023-03-26T11:25:41.543Z,100792.86
2023-03-26T11:28:38.166Z,100790.60
2023-03-26T11:31:49.514Z,100790.05
2023-03-26T11:34:22.500Z,100784.77
2023-03-26T11:36:57.260Z,100785.39
2023-03-26T11:39:34.163Z,100783.46
2023-03-26T11:42:14.105Z,100783.52
2023-03-26T11:45:18.200Z,100781.61
2023-03-26T11:47:53.999Z,100780.46
2023-03-26T11:50:35.967Z,100772.54
2023-03-26T11:53:19.403Z,100772.39
2023-03-26T11:55:56.031Z,100769.13
2023-03-26T11:59:48.882Z,100765.30
2023-03-26T12:02:32.852Z,100768.37
2023-03-26T12:05:22.499Z,100771.41
2023-03-26T12:07:59.753Z,100765.71
2023-03-26T12:10:42.987Z,100767.39
2023-03-26T12:13:44.367Z,100763.10
2023-03-26T12:16:18.577Z,100752.53
2023-03-26T12:19:08.438Z,100750.86
2023-03-26T12:21:50.399Z,100737.92
2023-03-26T12:24:32.251Z,100741.95
2023-03-26T12:27:20.613Z,100735.89
2023-03-26T12:30:00.476Z,100732.95
2023-03-26T12:32:45.276Z,100719.19
2023-03-26T12:35:26.898Z,100714.22
2023-03-26T12:38:19.883Z,100706.52
2023-03-26T12:41:05.117Z,100699.80
2023-03-26T12:44:56.580Z,100690.14
2023-03-26T12:47:56.265Z,100683.92
2023-03-26T12:49:45.434Z,100676.69
2023-03-26T12:52:53.791Z,100679.81
2023-03-26T12:55:49.354Z,100668.75
2023-03-26T12:58:57.726Z,100663.66
2023-03-26T13:01:58.959Z,100662.85
2023-03-26T13:05:13.386Z,100657.90
2023-03-26T13:08:19.439Z,100656.90
2023-03-26T13:10:54.743Z,100650.48
2023-03-26T13:14:05.623Z,100646.58
2023-03-26T13:16:40.179Z,100639.27
2023-03-26T13:19:36.895Z,100635.26
2023-03-26T13:22:42.602Z,100638.59
2023-03-26T13:25:43.309Z,100632.98
2023-03-26T13:28:54.116Z,100629.94
2023-03-26T13:32:15.594Z,100621.88
2023-03-26T13:35:26.636Z,100617.44
2023-03-26T13:38:15.579Z,100614.05
2023-03-26T13:40:44.890Z,100611.25
2023-03-26T13:43:40.970Z,100611.23
2023-03-26T13:46:35.162Z,100612.34
2023-03-26T13:49:48.892Z,100604.61
2023-03-26T13:52:39.190Z,100603.24
2023-03-26T13:55:37.614Z,100601.83
2023-03-26T13:58:34.700Z,100599.36
2023-03-26T14:01:23.236Z,100602.30
2023-03-26T14:04:17.976Z,100598.88
2023-03-26T14:06:54.202Z,100596.23
2023-03-26T14:09:32.102Z,100591.60
2023-03-26T14:12:25.511Z,100586.67
2023-03-26T14:15:14.115Z,100582.73
2023-03-26T14:18:07.042Z,100577.55
2023-03-26T14:21:04.818Z,100571.30
2023-03-26T14:24:07.475Z,100563.84
2023-03-26T14:27:05.690Z,100563.15
2023-03-26T14:29:59.057Z,100552.40
2023-03-26T14:33:11.027Z,100552.99
2023-03-26T14:36:49.644Z,100547.25
2023-03-26T14:39:49.720Z,100551.18
2023-03-26T14:43:04.571Z,100552.32
2023-03-26T14:45:52.096Z,100558.61
2023-03-26T14:48:50.276Z,100570.34
2023-03-26T14:51:19.457Z,100589.27
2023-03-26T14:53:57.142Z,100616.14
2023-03-26T14:57:10.183Z,100612.71
2023-03-26T15:00:16.065Z,100597.42
2023-03-26T15:03:27.520Z,100579.92
2023-03-26T15:06:21.335Z,100584.52
2023-03-26T15:08:53.472Z,100583.86
2023-03-26T15:12:12.080Z,100580.70
2023-03-26T15:15:14.016Z,100588.98
2023-03-26T15:18:23.432Z,100588.31
2023-03-26T15:21:14.234Z,100592.09
2023-03-26T15:24:27.618Z,100587.48
2023-03-26T15:27:37.233Z,100591.39
2023-03-26T15:30:21.688Z,100601.98
2023-03-26T15:33:24.934Z,100597.50
2023-03-26T15:36:22.639Z,100595.95
2023-03-26T15:39:30.671Z,100602.88
2023-03-26T15:42:22.278Z,100608.80
2023-03-26T15:45:13.283Z,100600.21
2023-03-26T15:48:02.329Z,100599.60
2023-03-26T15:50:40.876Z,100603.61
2023-03-26T15:53:26.406Z,100610.33
2023-03-26T15:56:07.874Z,100608.96
2023-03-26T15:59:23.825Z,100612.80
2023-03-26T16:02:16.378Z,100614.58
2023-03-26T16:04:56.094Z,100632.39
2023-03-26T16:08:19.203Z,100641.98
2023-03-26T16:10:58.387Z,100654.49
2023-03-26T16:13:36.317Z,100677.09
2023-03-26T16:16:07.222Z,100679.77
2023-03-26T16:18:45.682Z,100664.46
2023-03-26T16:21:36.608Z,100654.43
2023-03-26T16:24:06.024Z,100654.94
2023-03-26T16:26:44.033Z,100659.97
2023-03-26T16:29:24.798Z,100668.08
2023-03-26T16:32:35.590Z,100663.94
2023-03-26T16:35:21.221Z,100661.89
2023-03-26T16:38:05.889Z,100659.67
2023-03-26T16:40:36.822Z,100660.31
2023-03-26T16:43:55.448Z,100662.11
2023-03-26T16:46:38.550Z,100665.42
2023-03-26T16:49:18.990Z,100663.26
2023-03-26T16:52:10.131Z,100657.54
2023-03-26T16:54:57.207Z,100656.96
2023-03-26T16:57:56.787Z,100662.73
2023-03-26T17:00:55.106Z,100662.27
2023-03-26T17:03:35.689Z,100667.10
2023-03-26T17:06:35.881Z,100677.97
2023-03-26T17:10:03.877Z,100685.05
2023-03-26T17:13:04.300Z,100692.27
2023-03-26T17:16:01.762Z,100698.08
2023-03-26T17:18:37.210Z,100696.25
2023-03-26T17:21:22.445Z,100702.30
2023-03-26T17:24:04.278Z,100708.67
2023-03-26T17:27:04.319Z,100710.93
2023-03-26T17:30:04.128Z,100712.58
2023-03-26T17:32:58.942Z,100709.98
2023-03-26T17:35:50.936Z,100705.86
2023-03-26T17:38:26.820Z,100702.85
2023-03-26T17:40:59.500Z,100701.54
2023-03-26T17:43:52.882Z,100698.98
2023-03-26T17:46:48.315Z,100697.27
2023-03-26T17:49:31.264Z,100697.55
2023-03-26T17:52:30.506Z,100702.04
2023-03-26T17:55:01.948Z,100705.89
2023-03-26T17:57:43.121Z,100707.90
2023-03-26T18:00:27.008Z,100711.89
2023-03-26T18:03:11.551Z,100713.48
2023-03-26T18:05:41.767Z,100729.27
2023-03-26T18:08:58.395Z,100735.60
2023-03-26T18:11:55.471Z,100740.73
2023-03-26T18:14:36.665Z,100744.40
2023-03-26T18:17:07.075Z,100750.92
2023-03-26T18:19:54.692Z,100748.79
2023-03-26T18:22:27.866Z,100751.34
2023-03-26T18:25:00.821Z,100751.99
2023-03-26T18:27:41.222Z,100752.46
2023-03-26T18:30:17.977Z,100753.44
2023-03-26T18:33:00.528Z,100750.22
2023-03-26T18:35:46.624Z,100754.23
2023-03-26T18:38:35.708Z,100749.42
2023-03-26T18:41:20.186Z,100748.77
2023-03-26T18:43:49.835Z,100747.77
2023-03-26T18:46:19.394Z,100748.08
2023-03-26T18:48:48.949Z,100749.50
2023-03-26T18:51:23.172Z,100746.16
2023-03-26T18:53:58.387Z,100743.15
2023-03-26T18:56:33.861Z,100746.33
2023-03-26T18:59:17.568Z,100735.00
2023-03-26T19:01:48.767Z,100736.82
2023-03-26T19:04:18.849Z,100734.45
2023-03-26T19:06:48.484Z,100734.86
2023-03-26T19:09:30.842Z,100731.17
2023-03-26T19:12:28.017Z,100731.21
2023-03-26T19:15:16.987Z,100735.37
2023-03-26T19:17:56.738Z,100731.63
2023-03-26T19:20:30.118Z,100731.02
2023-03-26T19:22:59.557Z,100735.85
2023-03-26T19:25:35.799Z,100734.44
2023-03-26T19:28:07.475Z,100731.70
2023-03-26T19:30:41.153Z,100733.68
2023-03-26T19:33:18.552Z,100733.88
2023-03-26T19:36:04.976Z,100732.79
2023-03-26T19:39:05.193Z,100732.66
2023-03-26T19:41:41.117Z,100730.08
2023-03-26T19:44:29.578Z,100727.40
2023-03-26T19:47:31.926Z,100726.48
2023-03-26T19:50:30.487Z,100730.55
2023-03-26T19:53:16.556Z,100726.28
2023-03-26T19:56:18.617Z,100728.15
2023-03-26T19:58:50.162Z,100726.98
2023-03-26T20:01:27.666Z,100724.27
2023-03-26T20:04:10.271Z,100723.52
2023-03-26T20:06:43.926Z,100725.20
2023-03-26T20:09:14.199Z,100724.88
2023-03-26T20:11:43.679Z,100724.17
2023-03-26T20:14:26.149Z,100723.34
2023-03-26T20:16:55.955Z,100723.23
2023-03-26T20:19:25.998Z,100720.21
2023-03-26T20:21:55.848Z,100715.59
2023-03-26T20:24:26.100Z,100715.59
2023-03-26T20:26:55.377Z,100713.11
2023-03-26T20:29:24.778Z,100715.38
2023-03-26T20:31:54.387Z,100715.83
2023-03-26T20:34:24.774Z,100715.27
2023-03-26T20:36:56.120Z,100716.95
2023-03-26T20:39:25.648Z,100721.98
2023-03-26T20:41:56.445Z,100725.52
2023-03-26T20:44:28.112Z,100726.26
2023-03-26T20:46:59.056Z,100725.96
2023-03-26T20:49:29.753Z,100724.59
2023-03-26T20:52:00.262Z,100721.86
2023-03-26T20:54:32.160Z,100723.42
2023-03-26T20:57:02.696Z,100721.86
2023-03-26T20:59:32.587Z,100717.11
2023-03-26T21:02:02.128Z,100719.37
2023-03-26T21:04:32.319Z,100721.50
2023-03-26T21:07:11.077Z,100724.70
2023-03-26T21:09:48.878Z,100724.98
2023-03-26T21:12:35.006Z,100720.89
2023-03-26T21:15:13.420Z,100720.61
2023-03-26T21:17:46.845Z,100719.17
2023-03-26T21:20:20.933Z,100716.42
2023-03-26T21:23:20.361Z,100717.16
2023-03-26T21:26:06.462Z,100716.20
2023-03-26T21:28:49.373Z,100714.35
2023-03-26T21:31:24.312Z,100715.23
2023-03-26T21:33:55.279Z,100713.67
2023-03-26T21:36:24.958Z,100712.80
2023-03-26T21:38:54.923Z,100712.58
2023-03-26T21:41:24.255Z,100711.14
2023-03-26T21:43:53.682Z,100705.30
2023-03-26T21:46:23.539Z,100706.45
2023-03-26T21:48:53.426Z,100703.27
2023-03-26T21:51:23.247Z,100698.27
2023-03-26T21:53:53.854Z,100695.52
2023-03-26T21:56:46.940Z,100692.27
2023-03-26T21:59:19.393Z,100691.34
2023-03-26T22:02:24.909Z,100694.00
2023-03-26T22:05:01.677Z,100696.45
2023-03-26T22:07:49.998Z,100690.08
2023-03-26T22:10:19.557Z,100681.81
2023-03-26T22:12:49.508Z,100678.60
2023-03-26T22:15:19.257Z,100677.23
2023-03-26T22:17:55.960Z,100675.42
2023-03-26T22:20:25.446Z,100676.10
2023-03-26T22:22:55.429Z,100670.98
2023-03-26T22:25:25.113Z,100668.04
2023-03-26T22:27:55.374Z,100667.86
2023-03-26T22:30:24.693Z,100664.84
2023-03-26T22:32:54.230Z,100664.35
2023-03-26T22:35:23.576Z,100654.41
2023-03-26T22:37:53.069Z,100649.09
2023-03-26T22:40:30.579Z,100647.87
2023-03-26T22:42:59.890Z,100642.15
2023-03-26T22:45:30.213Z,100642.31
2023-03-26T22:48:03.918Z,100643.20
2023-03-26T22:50:33.876Z,100639.82
2023-03-26T22:53:03.338Z,100635.74
2023-03-26T22:55:32.611Z,100633.73
2023-03-26T22:58:02.559Z,100628.33
2023-03-26T23:00:32.463Z,100622.66
2023-03-26T23:03:02.013Z,100619.23
2023-03-26T23:05:31.520Z,100620.85
2023-03-26T23:08:01.062Z,100618.33
2023-03-26T23:10:30.954Z,100614.64
2023-03-26T23:13:00.858Z,100611.70
2023-03-26T23:15:30.597Z,100611.95
2023-03-26T23:17:59.980Z,100611.84
2023-03-26T23:20:30.136Z,100612.35
2023-03-26T23:22:59.483Z,100612.58
2023-03-26T23:25:30.636Z,100609.95
2023-03-26T23:28:01.036Z,100610.41
2023-03-26T23:30:30.558Z,100605.58
2023-03-26T23:33:00.036Z,100608.43
2023-03-26T23:35:29.783Z,100610.95
2023-03-26T23:38:02.294Z,100605.41
2023-03-26T23:40:32.398Z,100610.25
2023-03-26T23:43:01.899Z,100610.85
2023-03-26T23:45:31.782Z,100611.86
2023-03-26T23:48:02.581Z,100614.23
2023-03-26T23:50:33.088Z,100610.79
2023-03-26T23:53:02.517Z,100608.30
2023-03-26T23:55:32.123Z,100606.84
2023-03-26T23:58:03.493Z,100604.44
